sensor_id;sensor_type;location;lat;lon;timestamp;P1;durP1;ratioP1;P2;durP2;ratioP2
29848;SDS011;16728;50.832;5.590;2024-02-21T00:00:50;33.22;;;12.75;;
29848;SDS011;16728;50.832;5.590;2024-02-21T00:03:52;23.10;;;11.25;;
29848;SDS011;16728;50.832;5.590;2024-02-21T00:06:54;27.63;;;12.57;;
29848;SDS011;16728;50.832;5.590;2024-02-21T00:09:56;26.83;;;12.48;;
29848;SDS011;16728;50.832;5.590;2024-02-21T00:12:59;28.42;;;12.32;;
29848;SDS011;16728;50.832;5.590;2024-02-21T00:16:01;31.02;;;12.50;;
29848;SDS011;16728;50.832;5.590;2024-02-21T00:19:03;25.38;;;12.35;;
29848;SDS011;16728;50.832;5.590;2024-02-21T00:22:05;28.15;;;12.27;;
29848;SDS011;16728;50.832;5.590;2024-02-21T00:25:08;23.38;;;11.77;;
29848;SDS011;16728;50.832;5.590;2024-02-21T00:28:10;24.27;;;11.85;;
29848;SDS011;16728;50.832;5.590;2024-02-21T00:31:13;22.20;;;10.93;;
29848;SDS011;16728;50.832;5.590;2024-02-21T00:34:15;28.08;;;11.18;;
29848;SDS011;16728;50.832;5.590;2024-02-21T00:37:17;24.80;;;10.27;;
29848;SDS011;16728;50.832;5.590;2024-02-21T00:40:20;21.67;;;11.27;;
29848;SDS011;16728;50.832;5.590;2024-02-21T00:43:23;24.10;;;11.45;;
29848;SDS011;16728;50.832;5.590;2024-02-21T00:46:26;28.50;;;11.40;;
29848;SDS011;16728;50.832;5.590;2024-02-21T00:49:28;23.38;;;11.57;;
29848;SDS011;16728;50.832;5.590;2024-02-21T00:52:31;20.85;;;11.52;;
29848;SDS011;16728;50.832;5.590;2024-02-21T00:55:33;25.10;;;11.15;;
29848;SDS011;16728;50.832;5.590;2024-02-21T00:58:36;25.83;;;11.02;;
29848;SDS011;16728;50.832;5.590;2024-02-21T01:01:38;23.30;;;11.75;;
29848;SDS011;16728;50.832;5.590;2024-02-21T01:04:44;19.98;;;11.07;;
29848;SDS011;16728;50.832;5.590;2024-02-21T01:07:46;21.73;;;10.88;;
29848;SDS011;16728;50.832;5.590;2024-02-21T01:10:49;27.13;;;11.45;;
29848;SDS011;16728;50.832;5.590;2024-02-21T01:13:51;24.75;;;10.55;;
29848;SDS011;16728;50.832;5.590;2024-02-21T01:16:54;23.67;;;11.23;;
29848;SDS011;16728;50.832;5.590;2024-02-21T01:19:56;25.83;;;11.65;;
29848;SDS011;16728;50.832;5.590;2024-02-21T01:22:59;24.08;;;11.75;;
29848;SDS011;16728;50.832;5.590;2024-02-21T01:26:02;20.33;;;10.93;;
29848;SDS011;16728;50.832;5.590;2024-02-21T01:29:04;24.20;;;11.50;;
29848;SDS011;16728;50.832;5.590;2024-02-21T01:32:07;24.40;;;11.15;;
29848;SDS011;16728;50.832;5.590;2024-02-21T01:35:09;20.73;;;10.60;;
29848;SDS011;16728;50.832;5.590;2024-02-21T01:38:15;20.08;;;10.45;;
29848;SDS011;16728;50.832;5.590;2024-02-21T01:41:17;20.05;;;11.07;;
29848;SDS011;16728;50.832;5.590;2024-02-21T01:44:19;25.45;;;10.00;;
29848;SDS011;16728;50.832;5.590;2024-02-21T01:47:22;23.17;;;10.05;;
29848;SDS011;16728;50.832;5.590;2024-02-21T01:50:24;20.95;;;10.93;;
29848;SDS011;16728;50.832;5.590;2024-02-21T01:53:30;25.70;;;10.35;;
29848;SDS011;16728;50.832;5.590;2024-02-21T01:56:35;20.50;;;9.38;;
29848;SDS011;16728;50.832;5.590;2024-02-21T01:59:37;18.50;;;9.88;;
29848;SDS011;16728;50.832;5.590;2024-02-21T02:02:40;18.88;;;9.88;;
29848;SDS011;16728;50.832;5.590;2024-02-21T02:05:45;20.67;;;9.77;;
29848;SDS011;16728;50.832;5.590;2024-02-21T02:08:48;16.83;;;9.25;;
29848;SDS011;16728;50.832;5.590;2024-02-21T02:11:50;23.00;;;9.57;;
29848;SDS011;16728;50.832;5.590;2024-02-21T02:15:02;23.20;;;9.70;;
29848;SDS011;16728;50.832;5.590;2024-02-21T02:18:08;21.70;;;10.75;;
29848;SDS011;16728;50.832;5.590;2024-02-21T02:21:13;19.30;;;8.88;;
29848;SDS011;16728;50.832;5.590;2024-02-21T02:24:17;22.02;;;9.65;;
29848;SDS011;16728;50.832;5.590;2024-02-21T02:27:19;19.27;;;9.35;;
29848;SDS011;16728;50.832;5.590;2024-02-21T02:30:24;19.92;;;9.02;;
29848;SDS011;16728;50.832;5.590;2024-02-21T02:33:26;20.17;;;9.10;;
29848;SDS011;16728;50.832;5.590;2024-02-21T02:36:31;24.27;;;10.03;;
29848;SDS011;16728;50.832;5.590;2024-02-21T02:39:34;20.67;;;9.07;;
29848;SDS011;16728;50.832;5.590;2024-02-21T02:42:36;27.43;;;9.10;;
29848;SDS011;16728;50.832;5.590;2024-02-21T02:45:40;17.77;;;8.23;;
29848;SDS011;16728;50.832;5.590;2024-02-21T02:48:42;21.17;;;9.40;;
29848;SDS011;16728;50.832;5.590;2024-02-21T02:51:46;20.70;;;8.95;;
29848;SDS011;16728;50.832;5.590;2024-02-21T02:54:48;18.98;;;9.02;;
29848;SDS011;16728;50.832;5.590;2024-02-21T02:57:53;22.70;;;9.43;;
29848;SDS011;16728;50.832;5.590;2024-02-21T03:00:55;23.55;;;8.35;;
29848;SDS011;16728;50.832;5.590;2024-02-21T03:03:57;18.48;;;9.32;;
29848;SDS011;16728;50.832;5.590;2024-02-21T03:07:00;24.33;;;9.48;;
29848;SDS011;16728;50.832;5.590;2024-02-21T03:10:02;17.70;;;9.52;;
29848;SDS011;16728;50.832;5.590;2024-02-21T03:13:04;23.67;;;9.30;;
29848;SDS011;16728;50.832;5.590;2024-02-21T03:16:06;17.15;;;8.70;;
29848;SDS011;16728;50.832;5.590;2024-02-21T03:19:09;17.17;;;9.38;;
29848;SDS011;16728;50.832;5.590;2024-02-21T03:22:11;19.75;;;8.60;;
29848;SDS011;16728;50.832;5.590;2024-02-21T03:25:13;17.60;;;8.77;;
29848;SDS011;16728;50.832;5.590;2024-02-21T03:28:16;19.33;;;8.35;;
29848;SDS011;16728;50.832;5.590;2024-02-21T03:31:19;16.80;;;8.40;;
29848;SDS011;16728;50.832;5.590;2024-02-21T03:34:21;22.42;;;8.90;;
29848;SDS011;16728;50.832;5.590;2024-02-21T03:37:23;18.02;;;8.98;;
29848;SDS011;16728;50.832;5.590;2024-02-21T03:40:26;18.27;;;8.30;;
29848;SDS011;16728;50.832;5.590;2024-02-21T03:43:28;20.52;;;8.60;;
29848;SDS011;16728;50.832;5.590;2024-02-21T03:46:30;18.92;;;8.25;;
29848;SDS011;16728;50.832;5.590;2024-02-21T03:49:35;17.23;;;9.02;;
29848;SDS011;16728;50.832;5.590;2024-02-21T03:52:38;17.83;;;8.38;;
29848;SDS011;16728;50.832;5.590;2024-02-21T03:55:40;17.35;;;8.40;;
29848;SDS011;16728;50.832;5.590;2024-02-21T03:58:42;18.98;;;8.55;;
29848;SDS011;16728;50.832;5.590;2024-02-21T04:01:44;23.45;;;7.63;;
29848;SDS011;16728;50.832;5.590;2024-02-21T04:04:47;16.67;;;7.82;;
29848;SDS011;16728;50.832;5.590;2024-02-21T04:07:50;13.95;;;7.93;;
29848;SDS011;16728;50.832;5.590;2024-02-21T04:13:55;18.25;;;7.72;;
29848;SDS011;16728;50.832;5.590;2024-02-21T04:16:57;20.52;;;8.25;;
29848;SDS011;16728;50.832;5.590;2024-02-21T04:20:03;19.75;;;7.72;;
29848;SDS011;16728;50.832;5.590;2024-02-21T04:23:12;14.98;;;7.25;;
29848;SDS011;16728;50.832;5.590;2024-02-21T04:26:15;17.85;;;7.47;;
29848;SDS011;16728;50.832;5.590;2024-02-21T04:29:18;18.27;;;7.65;;
29848;SDS011;16728;50.832;5.590;2024-02-21T04:32:20;17.05;;;7.07;;
29848;SDS011;16728;50.832;5.590;2024-02-21T04:35:22;16.60;;;6.82;;
29848;SDS011;16728;50.832;5.590;2024-02-21T04:38:25;18.23;;;7.57;;
29848;SDS011;16728;50.832;5.590;2024-02-21T04:41:27;15.35;;;6.55;;
29848;SDS011;16728;50.832;5.590;2024-02-21T04:44:29;29.08;;;17.42;;
29848;SDS011;16728;50.832;5.590;2024-02-21T04:47:31;32.63;;;14.75;;
29848;SDS011;16728;50.832;5.590;2024-02-21T04:50:34;26.67;;;13.53;;
29848;SDS011;16728;50.832;5.590;2024-02-21T04:53:36;13.98;;;7.07;;
29848;SDS011;16728;50.832;5.590;2024-02-21T04:56:38;14.20;;;6.35;;
29848;SDS011;16728;50.832;5.590;2024-02-21T04:59:41;18.42;;;7.82;;
29848;SDS011;16728;50.832;5.590;2024-02-21T05:02:43;20.88;;;6.78;;
29848;SDS011;16728;50.832;5.590;2024-02-21T05:05:45;13.68;;;6.38;;
29848;SDS011;16728;50.832;5.590;2024-02-21T05:08:48;10.47;;;5.60;;
29848;SDS011;16728;50.832;5.590;2024-02-21T05:11:50;12.55;;;6.00;;
29848;SDS011;16728;50.832;5.590;2024-02-21T05:14:52;13.60;;;6.38;;
29848;SDS011;16728;50.832;5.590;2024-02-21T05:17:55;12.55;;;6.53;;
29848;SDS011;16728;50.832;5.590;2024-02-21T05:20:57;18.80;;;7.17;;
29848;SDS011;16728;50.832;5.590;2024-02-21T05:23:59;16.45;;;7.28;;
29848;SDS011;16728;50.832;5.590;2024-02-21T05:27:02;12.38;;;6.95;;
29848;SDS011;16728;50.832;5.590;2024-02-21T05:30:04;15.30;;;7.15;;
29848;SDS011;16728;50.832;5.590;2024-02-21T05:33:08;15.57;;;6.88;;
29848;SDS011;16728;50.832;5.590;2024-02-21T05:36:10;13.57;;;7.00;;
29848;SDS011;16728;50.832;5.590;2024-02-21T05:39:13;20.25;;;6.25;;
29848;SDS011;16728;50.832;5.590;2024-02-21T05:42:15;14.52;;;5.93;;
29848;SDS011;16728;50.832;5.590;2024-02-21T05:45:18;12.27;;;5.88;;
29848;SDS011;16728;50.832;5.590;2024-02-21T05:48:22;12.13;;;5.68;;
29848;SDS011;16728;50.832;5.590;2024-02-21T05:54:27;9.95;;;4.90;;
29848;SDS011;16728;50.832;5.590;2024-02-21T05:57:29;15.20;;;5.20;;
29848;SDS011;16728;50.832;5.590;2024-02-21T06:00:32;15.10;;;4.93;;
29848;SDS011;16728;50.832;5.590;2024-02-21T06:03:34;16.88;;;6.18;;
29848;SDS011;16728;50.832;5.590;2024-02-21T06:06:40;21.02;;;9.15;;
29848;SDS011;16728;50.832;5.590;2024-02-21T06:09:42;15.93;;;5.30;;
29848;SDS011;16728;50.832;5.590;2024-02-21T06:12:45;11.35;;;5.40;;
29848;SDS011;16728;50.832;5.590;2024-02-21T06:15:47;13.90;;;6.70;;
29848;SDS011;16728;50.832;5.590;2024-02-21T06:18:51;13.45;;;6.10;;
29848;SDS011;16728;50.832;5.590;2024-02-21T06:21:54;20.75;;;6.03;;
29848;SDS011;16728;50.832;5.590;2024-02-21T06:24:56;15.57;;;6.28;;
29848;SDS011;16728;50.832;5.590;2024-02-21T06:27:58;17.65;;;7.28;;
29848;SDS011;16728;50.832;5.590;2024-02-21T06:31:00;12.27;;;5.68;;
29848;SDS011;16728;50.832;5.590;2024-02-21T06:34:02;14.27;;;6.18;;
29848;SDS011;16728;50.832;5.590;2024-02-21T06:37:05;14.57;;;6.50;;
29848;SDS011;16728;50.832;5.590;2024-02-21T06:40:08;12.32;;;4.72;;
29848;SDS011;16728;50.832;5.590;2024-02-21T06:43:10;11.48;;;5.43;;
29848;SDS011;16728;50.832;5.590;2024-02-21T06:46:22;13.43;;;6.22;;
29848;SDS011;16728;50.832;5.590;2024-02-21T06:49:25;13.13;;;6.22;;
29848;SDS011;16728;50.832;5.590;2024-02-21T06:52:28;13.00;;;5.47;;
29848;SDS011;16728;50.832;5.590;2024-02-21T06:55:30;12.63;;;6.05;;
29848;SDS011;16728;50.832;5.590;2024-02-21T06:58:32;14.02;;;5.57;;
29848;SDS011;16728;50.832;5.590;2024-02-21T07:01:35;13.90;;;6.30;;
29848;SDS011;16728;50.832;5.590;2024-02-21T07:04:37;12.98;;;5.70;;
29848;SDS011;16728;50.832;5.590;2024-02-21T07:07:40;11.43;;;5.33;;
29848;SDS011;16728;50.832;5.590;2024-02-21T07:10:42;13.70;;;5.72;;
29848;SDS011;16728;50.832;5.590;2024-02-21T07:13:45;10.50;;;5.40;;
29848;SDS011;16728;50.832;5.590;2024-02-21T07:16:47;11.65;;;5.18;;
29848;SDS011;16728;50.832;5.590;2024-02-21T07:19:49;12.97;;;6.37;;
29848;SDS011;16728;50.832;5.590;2024-02-21T07:22:51;10.30;;;5.30;;
29848;SDS011;16728;50.832;5.590;2024-02-21T07:25:54;18.48;;;5.72;;
29848;SDS011;16728;50.832;5.590;2024-02-21T07:28:56;9.20;;;5.57;;
29848;SDS011;16728;50.832;5.590;2024-02-21T07:31:58;14.33;;;5.10;;
29848;SDS011;16728;50.832;5.590;2024-02-21T07:35:01;14.90;;;5.53;;
29848;SDS011;16728;50.832;5.590;2024-02-21T07:38:04;12.47;;;5.73;;
29848;SDS011;16728;50.832;5.590;2024-02-21T07:41:07;16.67;;;6.03;;
29848;SDS011;16728;50.832;5.590;2024-02-21T07:44:09;12.40;;;5.83;;
29848;SDS011;16728;50.832;5.590;2024-02-21T07:47:12;14.50;;;5.40;;
29848;SDS011;16728;50.832;5.590;2024-02-21T07:50:14;8.50;;;5.20;;
29848;SDS011;16728;50.832;5.590;2024-02-21T07:53:16;9.30;;;5.33;;
29848;SDS011;16728;50.832;5.590;2024-02-21T07:56:19;14.02;;;5.68;;
29848;SDS011;16728;50.832;5.590;2024-02-21T07:59:21;19.33;;;5.82;;
29848;SDS011;16728;50.832;5.590;2024-02-21T08:02:26;14.60;;;6.55;;
29848;SDS011;16728;50.832;5.590;2024-02-21T08:05:29;13.50;;;6.15;;
29848;SDS011;16728;50.832;5.590;2024-02-21T08:08:31;14.70;;;5.80;;
29848;SDS011;16728;50.832;5.590;2024-02-21T08:11:33;12.20;;;5.32;;
29848;SDS011;16728;50.832;5.590;2024-02-21T08:14:36;11.40;;;5.53;;
29848;SDS011;16728;50.832;5.590;2024-02-21T08:17:38;14.32;;;6.07;;
29848;SDS011;16728;50.832;5.590;2024-02-21T08:20:40;11.70;;;5.43;;
29848;SDS011;16728;50.832;5.590;2024-02-21T08:23:43;11.52;;;5.05;;
29848;SDS011;16728;50.832;5.590;2024-02-21T08:26:45;11.77;;;5.35;;
29848;SDS011;16728;50.832;5.590;2024-02-21T08:29:48;10.85;;;4.78;;
29848;SDS011;16728;50.832;5.590;2024-02-21T08:32:50;8.20;;;4.57;;
29848;SDS011;16728;50.832;5.590;2024-02-21T08:35:52;13.48;;;4.85;;
29848;SDS011;16728;50.832;5.590;2024-02-21T08:38:54;15.82;;;5.40;;
29848;SDS011;16728;50.832;5.590;2024-02-21T08:41:57;11.57;;;4.95;;
29848;SDS011;16728;50.832;5.590;2024-02-21T08:44:59;14.13;;;5.03;;
29848;SDS011;16728;50.832;5.590;2024-02-21T08:48:02;11.50;;;5.30;;
29848;SDS011;16728;50.832;5.590;2024-02-21T08:51:05;14.52;;;5.35;;
29848;SDS011;16728;50.832;5.590;2024-02-21T08:54:07;9.65;;;4.45;;
29848;SDS011;16728;50.832;5.590;2024-02-21T08:57:09;9.67;;;3.90;;
29848;SDS011;16728;50.832;5.590;2024-02-21T09:00:12;15.65;;;5.18;;
29848;SDS011;16728;50.832;5.590;2024-02-21T09:03:14;11.30;;;4.70;;
29848;SDS011;16728;50.832;5.590;2024-02-21T09:06:17;11.77;;;4.97;;
29848;SDS011;16728;50.832;5.590;2024-02-21T09:09:19;10.27;;;5.13;;
29848;SDS011;16728;50.832;5.590;2024-02-21T09:12:21;11.43;;;4.55;;
29848;SDS011;16728;50.832;5.590;2024-02-21T09:15:24;13.43;;;5.43;;
29848;SDS011;16728;50.832;5.590;2024-02-21T09:18:26;13.15;;;6.28;;
29848;SDS011;16728;50.832;5.590;2024-02-21T09:21:28;17.60;;;5.20;;
29848;SDS011;16728;50.832;5.590;2024-02-21T09:24:30;9.15;;;4.63;;
29848;SDS011;16728;50.832;5.590;2024-02-21T09:27:33;7.85;;;4.18;;
29848;SDS011;16728;50.832;5.590;2024-02-21T09:30:35;15.27;;;5.63;;
29848;SDS011;16728;50.832;5.590;2024-02-21T09:33:39;10.38;;;4.75;;
29848;SDS011;16728;50.832;5.590;2024-02-21T09:36:41;8.67;;;4.20;;
29848;SDS011;16728;50.832;5.590;2024-02-21T09:39:44;11.50;;;4.78;;
29848;SDS011;16728;50.832;5.590;2024-02-21T09:42:49;11.20;;;4.97;;
29848;SDS011;16728;50.832;5.590;2024-02-21T09:45:54;10.45;;;4.93;;
29848;SDS011;16728;50.832;5.590;2024-02-21T09:52:01;12.65;;;5.03;;
29848;SDS011;16728;50.832;5.590;2024-02-21T09:55:04;10.25;;;4.90;;
29848;SDS011;16728;50.832;5.590;2024-02-21T09:58:09;15.23;;;5.30;;
29848;SDS011;16728;50.832;5.590;2024-02-21T10:01:12;11.30;;;5.43;;
29848;SDS011;16728;50.832;5.590;2024-02-21T10:04:33;13.57;;;5.35;;
29848;SDS011;16728;50.832;5.590;2024-02-21T10:07:36;12.30;;;4.70;;
29848;SDS011;16728;50.832;5.590;2024-02-21T10:10:44;12.50;;;4.85;;
29848;SDS011;16728;50.832;5.590;2024-02-21T10:13:46;11.68;;;5.22;;
29848;SDS011;16728;50.832;5.590;2024-02-21T10:16:56;15.32;;;5.93;;
29848;SDS011;16728;50.832;5.590;2024-02-21T10:20:12;11.02;;;5.13;;
29848;SDS011;16728;50.832;5.590;2024-02-21T10:23:15;8.75;;;4.55;;
29848;SDS011;16728;50.832;5.590;2024-02-21T10:26:18;16.45;;;4.95;;
29848;SDS011;16728;50.832;5.590;2024-02-21T10:29:21;13.60;;;5.45;;
29848;SDS011;16728;50.832;5.590;2024-02-21T10:32:23;8.75;;;4.70;;
29848;SDS011;16728;50.832;5.590;2024-02-21T10:35:28;8.63;;;5.05;;
29848;SDS011;16728;50.832;5.590;2024-02-21T10:38:31;10.88;;;5.35;;
29848;SDS011;16728;50.832;5.590;2024-02-21T10:41:35;13.60;;;5.13;;
29848;SDS011;16728;50.832;5.590;2024-02-21T10:44:39;12.82;;;5.30;;
29848;SDS011;16728;50.832;5.590;2024-02-21T10:47:44;10.98;;;5.03;;
29848;SDS011;16728;50.832;5.590;2024-02-21T10:50:56;13.63;;;5.20;;
29848;SDS011;16728;50.832;5.590;2024-02-21T10:54:13;8.73;;;4.60;;
29848;SDS011;16728;50.832;5.590;2024-02-21T10:57:19;14.65;;;6.10;;
29848;SDS011;16728;50.832;5.590;2024-02-21T11:00:23;11.13;;;4.97;;
29848;SDS011;16728;50.832;5.590;2024-02-21T11:03:31;12.32;;;5.15;;
29848;SDS011;16728;50.832;5.590;2024-02-21T11:06:34;9.90;;;4.88;;
29848;SDS011;16728;50.832;5.590;2024-02-21T11:09:37;10.15;;;5.28;;
29848;SDS011;16728;50.832;5.590;2024-02-21T11:12:39;10.55;;;5.25;;
29848;SDS011;16728;50.832;5.590;2024-02-21T11:15:42;12.83;;;5.87;;
29848;SDS011;16728;50.832;5.590;2024-02-21T11:18:44;11.87;;;6.07;;
29848;SDS011;16728;50.832;5.590;2024-02-21T11:21:47;14.32;;;5.85;;
29848;SDS011;16728;50.832;5.590;2024-02-21T11:24:49;10.25;;;4.55;;
29848;SDS011;16728;50.832;5.590;2024-02-21T11:28:01;10.17;;;5.77;;
29848;SDS011;16728;50.832;5.590;2024-02-21T11:31:13;13.18;;;5.10;;
29848;SDS011;16728;50.832;5.590;2024-02-21T11:34:17;11.68;;;5.07;;
29848;SDS011;16728;50.832;5.590;2024-02-21T11:37:20;10.38;;;5.00;;
29848;SDS011;16728;50.832;5.590;2024-02-21T11:40:22;10.13;;;5.80;;
29848;SDS011;16728;50.832;5.590;2024-02-21T11:43:25;10.90;;;5.27;;
29848;SDS011;16728;50.832;5.590;2024-02-21T11:46:28;11.77;;;6.10;;
29848;SDS011;16728;50.832;5.590;2024-02-21T11:49:30;15.15;;;5.35;;
29848;SDS011;16728;50.832;5.590;2024-02-21T11:52:33;12.80;;;5.73;;
29848;SDS011;16728;50.832;5.590;2024-02-21T11:55:35;14.20;;;5.70;;
29848;SDS011;16728;50.832;5.590;2024-02-21T11:58:37;12.65;;;5.78;;
29848;SDS011;16728;50.832;5.590;2024-02-21T12:01:40;14.53;;;5.57;;
29848;SDS011;16728;50.832;5.590;2024-02-21T12:04:42;9.02;;;5.80;;
29848;SDS011;16728;50.832;5.590;2024-02-21T12:07:46;10.32;;;5.93;;
29848;SDS011;16728;50.832;5.590;2024-02-21T12:10:48;11.37;;;6.00;;
29848;SDS011;16728;50.832;5.590;2024-02-21T12:14:02;13.05;;;5.55;;
29848;SDS011;16728;50.832;5.590;2024-02-21T12:17:09;10.00;;;5.22;;
29848;SDS011;16728;50.832;5.590;2024-02-21T12:20:11;10.82;;;4.43;;
29848;SDS011;16728;50.832;5.590;2024-02-21T12:23:17;8.73;;;4.97;;
29848;SDS011;16728;50.832;5.590;2024-02-21T12:26:21;7.68;;;4.20;;
29848;SDS011;16728;50.832;5.590;2024-02-21T12:29:24;11.90;;;4.97;;
29848;SDS011;16728;50.832;5.590;2024-02-21T12:32:26;8.00;;;4.60;;
29848;SDS011;16728;50.832;5.590;2024-02-21T12:35:29;7.85;;;4.53;;
29848;SDS011;16728;50.832;5.590;2024-02-21T12:38:35;9.38;;;4.20;;
29848;SDS011;16728;50.832;5.590;2024-02-21T12:41:37;6.95;;;4.25;;
29848;SDS011;16728;50.832;5.590;2024-02-21T12:44:40;11.73;;;4.00;;
29848;SDS011;16728;50.832;5.590;2024-02-21T12:47:43;11.20;;;4.60;;
29848;SDS011;16728;50.832;5.590;2024-02-21T12:50:49;11.20;;;4.32;;
29848;SDS011;16728;50.832;5.590;2024-02-21T12:53:58;8.65;;;3.50;;
29848;SDS011;16728;50.832;5.590;2024-02-21T12:57:00;8.25;;;3.88;;
29848;SDS011;16728;50.832;5.590;2024-02-21T13:00:06;8.85;;;3.45;;
29848;SDS011;16728;50.832;5.590;2024-02-21T13:03:13;5.85;;;3.13;;
29848;SDS011;16728;50.832;5.590;2024-02-21T13:06:16;6.53;;;3.20;;
29848;SDS011;16728;50.832;5.590;2024-02-21T13:09:20;9.93;;;3.17;;
29848;SDS011;16728;50.832;5.590;2024-02-21T13:12:22;7.07;;;2.67;;
29848;SDS011;16728;50.832;5.590;2024-02-21T13:15:24;5.60;;;2.95;;
29848;SDS011;16728;50.832;5.590;2024-02-21T13:18:27;5.88;;;2.90;;
29848;SDS011;16728;50.832;5.590;2024-02-21T13:21:29;7.33;;;3.27;;
29848;SDS011;16728;50.832;5.590;2024-02-21T13:24:31;8.82;;;3.13;;
29848;SDS011;16728;50.832;5.590;2024-02-21T13:27:34;6.00;;;2.90;;
29848;SDS011;16728;50.832;5.590;2024-02-21T13:30:36;6.45;;;3.00;;
29848;SDS011;16728;50.832;5.590;2024-02-21T13:33:38;9.52;;;3.10;;
29848;SDS011;16728;50.832;5.590;2024-02-21T13:36:49;6.47;;;3.20;;
29848;SDS011;16728;50.832;5.590;2024-02-21T13:39:51;7.50;;;2.67;;
29848;SDS011;16728;50.832;5.590;2024-02-21T13:42:53;6.32;;;2.88;;
29848;SDS011;16728;50.832;5.590;2024-02-21T13:45:59;4.97;;;2.77;;
29848;SDS011;16728;50.832;5.590;2024-02-21T13:49:04;6.60;;;2.30;;
29848;SDS011;16728;50.832;5.590;2024-02-21T13:52:10;9.48;;;2.90;;
29848;SDS011;16728;50.832;5.590;2024-02-21T13:55:12;8.48;;;2.70;;
29848;SDS011;16728;50.832;5.590;2024-02-21T14:01:18;8.90;;;2.47;;
29848;SDS011;16728;50.832;5.590;2024-02-21T14:04:21;7.20;;;2.60;;
29848;SDS011;16728;50.832;5.590;2024-02-21T14:07:26;5.97;;;2.40;;
29848;SDS011;16728;50.832;5.590;2024-02-21T14:10:29;9.18;;;3.25;;
29848;SDS011;16728;50.832;5.590;2024-02-21T14:13:31;7.33;;;3.47;;
29848;SDS011;16728;50.832;5.590;2024-02-21T14:16:36;9.05;;;3.13;;
29848;SDS011;16728;50.832;5.590;2024-02-21T14:19:39;9.38;;;3.17;;
29848;SDS011;16728;50.832;5.590;2024-02-21T14:22:41;8.55;;;3.05;;
29848;SDS011;16728;50.832;5.590;2024-02-21T14:25:43;6.05;;;3.20;;
29848;SDS011;16728;50.832;5.590;2024-02-21T14:28:46;5.40;;;2.97;;
29848;SDS011;16728;50.832;5.590;2024-02-21T14:31:48;4.40;;;2.88;;
29848;SDS011;16728;50.832;5.590;2024-02-21T14:34:50;5.60;;;2.67;;
29848;SDS011;16728;50.832;5.590;2024-02-21T14:37:59;6.20;;;3.15;;
29848;SDS011;16728;50.832;5.590;2024-02-21T14:41:02;7.05;;;3.20;;
29848;SDS011;16728;50.832;5.590;2024-02-21T14:44:06;7.47;;;3.30;;
29848;SDS011;16728;50.832;5.590;2024-02-21T14:47:11;5.30;;;3.05;;
29848;SDS011;16728;50.832;5.590;2024-02-21T14:50:13;7.30;;;3.58;;
29848;SDS011;16728;50.832;5.590;2024-02-21T14:53:16;8.73;;;3.55;;
29848;SDS011;16728;50.832;5.590;2024-02-21T14:56:19;6.47;;;3.20;;
29848;SDS011;16728;50.832;5.590;2024-02-21T14:59:21;17.58;;;3.40;;
29848;SDS011;16728;50.832;5.590;2024-02-21T15:02:34;6.40;;;3.60;;
29848;SDS011;16728;50.832;5.590;2024-02-21T15:05:37;8.68;;;3.70;;
29848;SDS011;16728;50.832;5.590;2024-02-21T15:08:41;8.25;;;3.83;;
29848;SDS011;16728;50.832;5.590;2024-02-21T15:11:43;4.30;;;3.08;;
29848;SDS011;16728;50.832;5.590;2024-02-21T15:14:45;9.95;;;5.32;;
29848;SDS011;16728;50.832;5.590;2024-02-21T15:17:48;9.45;;;3.85;;
29848;SDS011;16728;50.832;5.590;2024-02-21T15:20:51;11.38;;;3.70;;
29848;SDS011;16728;50.832;5.590;2024-02-21T15:23:54;11.93;;;4.07;;
29848;SDS011;16728;50.832;5.590;2024-02-21T15:26:57;8.20;;;3.15;;
29848;SDS011;16728;50.832;5.590;2024-02-21T15:30:01;7.18;;;3.28;;
29848;SDS011;16728;50.832;5.590;2024-02-21T15:33:03;5.30;;;3.42;;
29848;SDS011;16728;50.832;5.590;2024-02-21T15:36:06;5.22;;;2.45;;
29848;SDS011;16728;50.832;5.590;2024-02-21T15:39:09;6.18;;;2.70;;
29848;SDS011;16728;50.832;5.590;2024-02-21T15:42:12;9.25;;;3.28;;
29848;SDS011;16728;50.832;5.590;2024-02-21T15:45:14;7.80;;;3.38;;
29848;SDS011;16728;50.832;5.590;2024-02-21T15:48:17;9.90;;;4.07;;
29848;SDS011;16728;50.832;5.590;2024-02-21T15:51:21;8.30;;;3.20;;
29848;SDS011;16728;50.832;5.590;2024-02-21T15:54:23;7.03;;;3.00;;
29848;SDS011;16728;50.832;5.590;2024-02-21T15:57:28;10.35;;;3.47;;
29848;SDS011;16728;50.832;5.590;2024-02-21T16:00:33;7.40;;;3.45;;
29848;SDS011;16728;50.832;5.590;2024-02-21T16:03:35;7.90;;;3.75;;
29848;SDS011;16728;50.832;5.590;2024-02-21T16:06:41;8.15;;;3.67;;
29848;SDS011;16728;50.832;5.590;2024-02-21T16:09:45;8.35;;;3.90;;
29848;SDS011;16728;50.832;5.590;2024-02-21T16:12:48;9.23;;;4.05;;
29848;SDS011;16728;50.832;5.590;2024-02-21T16:15:52;7.72;;;4.13;;
29848;SDS011;16728;50.832;5.590;2024-02-21T16:18:55;8.07;;;3.15;;
29848;SDS011;16728;50.832;5.590;2024-02-21T16:21:57;9.85;;;4.28;;
29848;SDS011;16728;50.832;5.590;2024-02-21T16:24:59;9.10;;;4.57;;
29848;SDS011;16728;50.832;5.590;2024-02-21T16:28:02;7.10;;;3.95;;
29848;SDS011;16728;50.832;5.590;2024-02-21T16:31:05;6.75;;;4.70;;
29848;SDS011;16728;50.832;5.590;2024-02-21T16:34:07;14.32;;;4.22;;
29848;SDS011;16728;50.832;5.590;2024-02-21T16:37:11;7.50;;;4.00;;
29848;SDS011;16728;50.832;5.590;2024-02-21T16:40:16;7.40;;;4.13;;
29848;SDS011;16728;50.832;5.590;2024-02-21T16:43:20;6.78;;;3.45;;
29848;SDS011;16728;50.832;5.590;2024-02-21T16:49:26;9.40;;;3.83;;
29848;SDS011;16728;50.832;5.590;2024-02-21T16:52:28;6.35;;;3.97;;
29848;SDS011;16728;50.832;5.590;2024-02-21T16:55:32;6.30;;;3.45;;
29848;SDS011;16728;50.832;5.590;2024-02-21T16:58:35;9.80;;;4.70;;
29848;SDS011;16728;50.832;5.590;2024-02-21T17:01:38;10.02;;;4.47;;
29848;SDS011;16728;50.832;5.590;2024-02-21T17:04:42;8.10;;;4.40;;
29848;SDS011;16728;50.832;5.590;2024-02-21T17:07:45;9.20;;;3.55;;
29848;SDS011;16728;50.832;5.590;2024-02-21T17:10:47;8.37;;;3.27;;
29848;SDS011;16728;50.832;5.590;2024-02-21T17:13:50;7.05;;;3.75;;
29848;SDS011;16728;50.832;5.590;2024-02-21T17:16:53;7.72;;;3.50;;
29848;SDS011;16728;50.832;5.590;2024-02-21T17:19:56;5.82;;;3.33;;
29848;SDS011;16728;50.832;5.590;2024-02-21T17:22:58;6.47;;;3.63;;
29848;SDS011;16728;50.832;5.590;2024-02-21T17:26:01;4.07;;;3.20;;
29848;SDS011;16728;50.832;5.590;2024-02-21T17:29:04;9.32;;;4.78;;
29848;SDS011;16728;50.832;5.590;2024-02-21T17:32:06;8.05;;;3.58;;
29848;SDS011;16728;50.832;5.590;2024-02-21T17:35:10;9.02;;;3.88;;
29848;SDS011;16728;50.832;5.590;2024-02-21T17:38:12;6.53;;;3.30;;
29848;SDS011;16728;50.832;5.590;2024-02-21T17:41:14;6.43;;;3.20;;
29848;SDS011;16728;50.832;5.590;2024-02-21T17:47:19;5.65;;;3.13;;
29848;SDS011;16728;50.832;5.590;2024-02-21T17:50:22;5.97;;;3.22;;
29848;SDS011;16728;50.832;5.590;2024-02-21T17:53:24;6.70;;;3.43;;
29848;SDS011;16728;50.832;5.590;2024-02-21T17:56:27;7.35;;;3.55;;
29848;SDS011;16728;50.832;5.590;2024-02-21T17:59:29;6.22;;;3.65;;
29848;SDS011;16728;50.832;5.590;2024-02-21T18:02:32;5.30;;;3.70;;
29848;SDS011;16728;50.832;5.590;2024-02-21T18:05:34;4.85;;;3.78;;
29848;SDS011;16728;50.832;5.590;2024-02-21T18:08:36;5.90;;;3.55;;
29848;SDS011;16728;50.832;5.590;2024-02-21T18:11:39;5.20;;;3.70;;
29848;SDS011;16728;50.832;5.590;2024-02-21T18:14:41;5.78;;;3.47;;
29848;SDS011;16728;50.832;5.590;2024-02-21T18:17:43;7.00;;;3.58;;
29848;SDS011;16728;50.832;5.590;2024-02-21T18:20:46;7.10;;;3.70;;
29848;SDS011;16728;50.832;5.590;2024-02-21T18:23:48;7.47;;;3.63;;
29848;SDS011;16728;50.832;5.590;2024-02-21T18:26:50;9.60;;;3.75;;
29848;SDS011;16728;50.832;5.590;2024-02-21T18:29:53;7.63;;;3.90;;